EVA133 RJBE-RCTP
Flight info
| Callsign | EVA133 |
|---|---|
| Flight time | N/A |
| Altitude | 36000 |
| Route | TANTA Y75 IGBOD Y34 HKC A1 DRAKE DRAKE1A |
| Aircraft | A321/M-SDE3FGHIRWY/LB1 |
Departure
| Time | 2026-05-08 01:58 |
|---|---|
| Airport | Kobe Airport (RJBE) |
Arrival
| Time | N/A |
|---|---|
| Airport | Taiwan Taoyuan International Airport (RCTP) |
| Time | Latitude | Longitude | Altitude | Speed | Heading |
|---|---|---|---|---|---|
| 2026-05-08 00:57 | 34.63607 | 135.22787 | 27 ft | 0 kts | 354° |
| 2026-05-08 01:50 | 34.63606 | 135.22787 | 27 ft | 2 kts | 354° |
| 2026-05-08 01:50 | 34.63580 | 135.22790 | 28 ft | 4 kts | 354° |
| 2026-05-08 01:50 | 34.63554 | 135.22793 | 28 ft | 4 kts | 354° |
| 2026-05-08 01:50 | 34.63527 | 135.22796 | 28 ft | 4 kts | 355° |
| 2026-05-08 01:51 | 34.63505 | 135.22798 | 28 ft | 2 kts | 5° |
| 2026-05-08 01:51 | 34.63489 | 135.22796 | 28 ft | 2 kts | 28° |
| 2026-05-08 01:51 | 34.63477 | 135.22786 | 28 ft | 3 kts | 54° |
| 2026-05-08 01:51 | 34.63468 | 135.22768 | 28 ft | 2 kts | 69° |
| 2026-05-08 01:52 | 34.63464 | 135.22759 | 27 ft | 0 kts | 64° |
| 2026-05-08 01:53 | 34.63469 | 135.22794 | 27 ft | 7 kts | 84° |
| 2026-05-08 01:53 | 34.63474 | 135.22855 | 27 ft | 10 kts | 84° |
| 2026-05-08 01:54 | 34.63481 | 135.22952 | 27 ft | 12 kts | 85° |
| 2026-05-08 01:54 | 34.63489 | 135.23052 | 27 ft | 12 kts | 84° |
| 2026-05-08 01:54 | 34.63497 | 135.23154 | 27 ft | 12 kts | 84° |
| 2026-05-08 01:54 | 34.63506 | 135.23258 | 27 ft | 12 kts | 84° |
| 2026-05-08 01:55 | 34.63514 | 135.23363 | 27 ft | 12 kts | 84° |
| 2026-05-08 01:55 | 34.63521 | 135.23468 | 27 ft | 12 kts | 85° |
| 2026-05-08 01:55 | 34.63530 | 135.23573 | 27 ft | 12 kts | 84° |
| 2026-05-08 01:55 | 34.63526 | 135.23670 | 27 ft | 11 kts | 109° |
| 2026-05-08 01:56 | 34.63474 | 135.23715 | 28 ft | 8 kts | 166° |
| 2026-05-08 01:56 | 34.63458 | 135.23718 | 28 ft | 0 kts | 173° |
| 2026-05-08 01:56 | 34.63453 | 135.23718 | 29 ft | 5 kts | 173° |
| 2026-05-08 01:57 | 34.63349 | 135.23658 | 29 ft | 0 kts | 232° |
| 2026-05-08 01:57 | 34.63335 | 135.23622 | 28 ft | 16 kts | 260° |
| 2026-05-08 01:57 | 34.63339 | 135.23282 | 27 ft | 71 kts | 266° |
| 2026-05-08 01:57 | 34.63274 | 135.22446 | 31 ft | 126 kts | 264° |
| 2026-05-08 01:58 | 34.63178 | 135.21209 | 43 ft | 165 kts | 266° |
| 2026-05-08 01:58 | 34.63158 | 135.19881 | 818 ft | 141 kts | 271° |
| 2026-05-08 01:58 | 34.63238 | 135.18752 | 1491 ft | 140 kts | 294° |
| 2026-05-08 01:58 | 34.64108 | 135.18035 | 1884 ft | 160 kts | 333° |
| 2026-05-08 01:59 | 34.64973 | 135.17351 | 2439 ft | 145 kts | 291° |
| 2026-05-08 01:59 | 34.64954 | 135.16152 | 2684 ft | 159 kts | 241° |
| 2026-05-08 01:59 | 34.63986 | 135.15307 | 2838 ft | 188 kts | 210° |
| 2026-05-08 01:59 | 34.62733 | 135.14625 | 2979 ft | 206 kts | 210° |
| 2026-05-08 02:00 | 34.61403 | 135.13889 | 3281 ft | 212 kts | 210° |
| 2026-05-08 02:00 | 34.60060 | 135.13145 | 3685 ft | 212 kts | 211° |
| 2026-05-08 02:00 | 34.58721 | 135.12388 | 4020 ft | 213 kts | 213° |
| 2026-05-08 02:00 | 34.57625 | 135.11234 | 4347 ft | 209 kts | 236° |
| 2026-05-08 02:01 | 34.56961 | 135.09656 | 4594 ft | 217 kts | 249° |
| 2026-05-08 02:01 | 34.56375 | 135.07851 | 4766 ft | 242 kts | 249° |
| 2026-05-08 02:01 | 34.55864 | 135.05881 | 5400 ft | 250 kts | 263° |
| 2026-05-08 02:01 | 34.55868 | 135.03753 | 6182 ft | 253 kts | 269° |
| 2026-05-08 02:02 | 34.55934 | 135.01627 | 7049 ft | 252 kts | 269° |
| 2026-05-08 02:02 | 34.56000 | 134.99492 | 7835 ft | 255 kts | 268° |
| 2026-05-08 02:02 | 34.56064 | 134.97337 | 8643 ft | 256 kts | 268° |
| 2026-05-08 02:02 | 34.56128 | 134.95168 | 9427 ft | 259 kts | 267° |
| 2026-05-08 02:03 | 34.56192 | 134.92970 | 10130 ft | 262 kts | 267° |
| 2026-05-08 02:03 | 34.56254 | 134.90713 | 10395 ft | 282 kts | 268° |
| 2026-05-08 02:03 | 34.56317 | 134.88233 | 10553 ft | 304 kts | 268° |
| 2026-05-08 02:03 | 34.56386 | 134.85627 | 11056 ft | 313 kts | 268° |
| 2026-05-08 02:04 | 34.56457 | 134.82975 | 11737 ft | 316 kts | 268° |
| 2026-05-08 02:04 | 34.56383 | 134.80319 | 12430 ft | 314 kts | 258° |
| 2026-05-08 02:04 | 34.55773 | 134.77794 | 13140 ft | 313 kts | 244° |
| 2026-05-08 02:04 | 34.54631 | 134.75552 | 13821 ft | 314 kts | 231° |
| 2026-05-08 02:05 | 34.53056 | 134.73701 | 14450 ft | 317 kts | 223° |
| 2026-05-08 02:05 | 34.51389 | 134.71935 | 15082 ft | 319 kts | 224° |
| 2026-05-08 02:05 | 34.49715 | 134.70160 | 15699 ft | 321 kts | 224° |
| 2026-05-08 02:05 | 34.48031 | 134.68371 | 16262 ft | 324 kts | 224° |
| 2026-05-08 02:06 | 34.46331 | 134.66561 | 16855 ft | 326 kts | 224° |
| 2026-05-08 02:06 | 34.44623 | 134.64740 | 17446 ft | 328 kts | 224° |
| 2026-05-08 02:06 | 34.42904 | 134.62907 | 18049 ft | 330 kts | 224° |
| 2026-05-08 02:06 | 34.41172 | 134.61061 | 18595 ft | 332 kts | 225° |
| 2026-05-08 02:07 | 34.39435 | 134.59215 | 19117 ft | 333 kts | 225° |
| 2026-05-08 02:07 | 34.37687 | 134.57360 | 19614 ft | 335 kts | 225° |
| 2026-05-08 02:07 | 34.35928 | 134.55493 | 20040 ft | 338 kts | 225° |
| 2026-05-08 02:07 | 34.34157 | 134.53611 | 20481 ft | 340 kts | 225° |
| 2026-05-08 02:08 | 34.32370 | 134.51712 | 20938 ft | 343 kts | 225° |
| 2026-05-08 02:08 | 34.30570 | 134.49803 | 21393 ft | 345 kts | 225° |
| 2026-05-08 02:08 | 34.28759 | 134.47886 | 21844 ft | 347 kts | 225° |
| 2026-05-08 02:08 | 34.26970 | 134.45964 | 22286 ft | 348 kts | 229° |
| 2026-05-08 02:09 | 34.25349 | 134.43745 | 22721 ft | 348 kts | 233° |
| 2026-05-08 02:09 | 34.23785 | 134.41497 | 23114 ft | 351 kts | 233° |
| 2026-05-08 02:09 | 34.22207 | 134.39240 | 23525 ft | 353 kts | 233° |
| 2026-05-08 02:09 | 34.20616 | 134.36970 | 23881 ft | 354 kts | 233° |
| 2026-05-08 02:10 | 34.19018 | 134.34695 | 24229 ft | 356 kts | 233° |
| 2026-05-08 02:10 | 34.17410 | 134.32405 | 24498 ft | 358 kts | 233° |
| 2026-05-08 02:10 | 34.15815 | 134.30136 | 24802 ft | 360 kts | 233° |
| 2026-05-08 02:10 | 34.14190 | 134.27825 | 25189 ft | 362 kts | 233° |
| 2026-05-08 02:11 | 34.12558 | 134.25507 | 25515 ft | 364 kts | 233° |
| 2026-05-08 02:11 | 34.10889 | 134.23142 | 25919 ft | 367 kts | 233° |
| 2026-05-08 02:11 | 34.09230 | 134.20791 | 26283 ft | 368 kts | 233° |
| 2026-05-08 02:11 | 34.07589 | 134.18462 | 26633 ft | 370 kts | 233° |
| 2026-05-08 02:12 | 34.05921 | 134.16094 | 26977 ft | 371 kts | 233° |
| 2026-05-08 02:12 | 34.04243 | 134.13717 | 27327 ft | 373 kts | 233° |
| 2026-05-08 02:12 | 34.02554 | 134.11332 | 27695 ft | 374 kts | 233° |
| 2026-05-08 02:12 | 34.00857 | 134.08937 | 28000 ft | 377 kts | 233° |
| 2026-05-08 02:13 | 33.99152 | 134.06532 | 28320 ft | 379 kts | 233° |
| 2026-05-08 02:13 | 33.97438 | 134.04109 | 28630 ft | 380 kts | 234° |
| 2026-05-08 02:13 | 33.95724 | 134.01680 | 29039 ft | 380 kts | 233° |
| 2026-05-08 02:13 | 33.94000 | 133.99244 | 29294 ft | 384 kts | 233° |
| 2026-05-08 02:14 | 33.92267 | 133.96807 | 29659 ft | 382 kts | 233° |
| 2026-05-08 02:14 | 33.90537 | 133.94373 | 29900 ft | 383 kts | 234° |
| 2026-05-08 02:14 | 33.88801 | 133.91930 | 30097 ft | 384 kts | 233° |
| 2026-05-08 02:14 | 33.87054 | 133.89473 | 30209 ft | 388 kts | 233° |
| 2026-05-08 02:15 | 33.85290 | 133.87003 | 30440 ft | 389 kts | 233° |
| 2026-05-08 02:15 | 33.83527 | 133.84536 | 30705 ft | 389 kts | 233° |
| 2026-05-08 02:15 | 33.81791 | 133.82060 | 31150 ft | 385 kts | 237° |
| 2026-05-08 02:15 | 33.80283 | 133.79437 | 31604 ft | 380 kts | 239° |
| 2026-05-08 02:16 | 33.78802 | 133.76822 | 31993 ft | 377 kts | 239° |
| 2026-05-08 02:16 | 33.77324 | 133.74228 | 32366 ft | 375 kts | 239° |
| 2026-05-08 02:16 | 33.75849 | 133.71648 | 32729 ft | 374 kts | 239° |
| 2026-05-08 02:16 | 33.74377 | 133.69083 | 33197 ft | 371 kts | 239° |
| 2026-05-08 02:17 | 33.72915 | 133.66535 | 33610 ft | 369 kts | 239° |
| 2026-05-08 02:17 | 33.71459 | 133.63995 | 33938 ft | 368 kts | 239° |
| 2026-05-08 02:17 | 33.70012 | 133.61470 | 34286 ft | 366 kts | 239° |
| 2026-05-08 02:17 | 33.68586 | 133.58985 | 34740 ft | 360 kts | 239° |
| 2026-05-08 02:18 | 33.67156 | 133.56492 | 34862 ft | 363 kts | 239° |
| 2026-05-08 02:18 | 33.65737 | 133.54019 | 35028 ft | 365 kts | 239° |
| 2026-05-08 02:18 | 33.64298 | 133.51508 | 35282 ft | 365 kts | 239° |
| 2026-05-08 02:18 | 33.62861 | 133.49001 | 35528 ft | 365 kts | 239° |
| 2026-05-08 02:19 | 33.61422 | 133.46498 | 35765 ft | 365 kts | 239° |
| 2026-05-08 02:19 | 33.59979 | 133.43995 | 35862 ft | 364 kts | 239° |
| 2026-05-08 02:19 | 33.57119 | 133.39053 | 35853 ft | 356 kts | 239° |
| 2026-05-08 02:20 | 33.54284 | 133.34134 | 35894 ft | 360 kts | 239° |
| 2026-05-08 02:20 | 33.51433 | 133.29192 | 35901 ft | 361 kts | 239° |
| 2026-05-08 02:21 | 33.48572 | 133.24254 | 35913 ft | 361 kts | 239° |
| 2026-05-08 02:21 | 33.45712 | 133.19333 | 35875 ft | 359 kts | 239° |
| 2026-05-08 02:22 | 33.43346 | 133.15260 | 35874 ft | 359 kts | 239° |
| 2026-05-08 02:22 | 33.40023 | 133.09533 | 35888 ft | 360 kts | 239° |
| 2026-05-08 02:23 | 33.37631 | 133.05400 | 35889 ft | 361 kts | 239° |
| 2026-05-08 02:23 | 33.34758 | 133.00455 | 35896 ft | 363 kts | 239° |
| 2026-05-08 02:24 | 33.31895 | 132.95550 | 35893 ft | 361 kts | 239° |
| 2026-05-08 02:24 | 33.29001 | 132.90597 | 35920 ft | 363 kts | 239° |
| 2026-05-08 02:25 | 33.26110 | 132.85641 | 35924 ft | 363 kts | 239° |
| 2026-05-08 02:25 | 33.23215 | 132.80701 | 35890 ft | 363 kts | 239° |
| 2026-05-08 02:26 | 33.20309 | 132.75747 | 35927 ft | 365 kts | 239° |
| 2026-05-08 02:26 | 33.17396 | 132.70788 | 35923 ft | 365 kts | 239° |
| 2026-05-08 02:27 | 33.14477 | 132.65822 | 35928 ft | 365 kts | 239° |
| 2026-05-08 02:27 | 33.11560 | 132.60859 | 35919 ft | 365 kts | 239° |
| 2026-05-08 02:28 | 33.08633 | 132.55897 | 35917 ft | 366 kts | 239° |
| 2026-05-08 02:28 | 33.05696 | 132.50935 | 35928 ft | 367 kts | 239° |